createdAt,value
2023-02-22T00:02:37.406Z,100987.40
2023-02-22T00:05:17.234Z,100989.80
2023-02-22T00:07:56.896Z,100990.00
2023-02-22T00:10:33.897Z,100989.80
2023-02-22T00:13:10.902Z,100987.80
2023-02-22T00:15:47.578Z,100985.80
2023-02-22T00:18:24.540Z,100987.60
2023-02-22T00:21:01.826Z,100981.40
2023-02-22T00:23:41.434Z,100985.20
2023-02-22T00:26:19.187Z,100985.80
2023-02-22T00:28:56.605Z,100985.00
2023-02-22T00:31:33.724Z,100980.60
2023-02-22T00:34:09.949Z,100979.80
2023-02-22T00:36:49.723Z,100982.60
2023-02-22T00:39:26.653Z,100976.60
2023-02-22T00:42:03.089Z,100977.60
2023-02-22T00:44:39.223Z,100975.80
2023-02-22T00:47:16.067Z,100971.00
2023-02-22T00:49:52.486Z,100968.20
2023-02-22T00:52:28.352Z,100968.00
2023-02-22T00:55:06.116Z,100966.60
2023-02-22T00:57:42.557Z,100967.20
2023-02-22T01:00:25.999Z,100968.60
2023-02-22T01:03:02.603Z,100967.60
2023-02-22T01:05:40.736Z,100968.60
2023-02-22T01:08:20.174Z,100967.80
2023-02-22T01:10:58.829Z,100969.60
2023-02-22T01:13:35.215Z,100970.00
2023-02-22T01:16:13.114Z,100968.00
2023-02-22T01:18:49.960Z,100965.60
2023-02-22T01:21:26.661Z,100966.20
2023-02-22T01:24:03.530Z,100966.40
2023-02-22T01:26:40.555Z,100961.00
2023-02-22T01:29:17.819Z,100962.40
2023-02-22T01:31:59.279Z,100961.40
2023-02-22T01:34:36.235Z,100956.00
2023-02-22T01:37:12.536Z,100954.40
2023-02-22T01:39:49.704Z,100952.80
2023-02-22T01:42:27.031Z,100949.40
2023-02-22T01:45:50.365Z,100946.60
2023-02-22T01:48:32.400Z,100942.00
2023-02-22T01:51:13.306Z,100938.80
2023-02-22T01:53:57.821Z,100939.80
2023-02-22T01:56:40.113Z,100936.80
2023-02-22T01:59:19.943Z,100931.60
2023-02-22T02:01:57.224Z,100931.60
2023-02-22T02:04:33.598Z,100929.00
2023-02-22T02:07:13.990Z,100926.40
2023-02-22T02:10:00.904Z,100925.60
2023-02-22T02:12:40.262Z,100922.00
2023-02-22T02:15:30.929Z,100919.20
2023-02-22T02:18:13.123Z,100916.40
2023-02-22T02:21:11.163Z,100919.20
2023-02-22T02:24:36.407Z,100914.20
2023-02-22T02:27:23.188Z,100912.40
2023-02-22T02:30:44.476Z,100909.20
2023-02-22T02:33:30.231Z,100908.00
2023-02-22T02:36:17.992Z,100907.20
2023-02-22T02:39:05.202Z,100904.20
2023-02-22T02:41:46.835Z,100900.40
2023-02-22T02:44:31.138Z,100899.40
2023-02-22T02:47:13.387Z,100896.60
2023-02-22T02:49:58.650Z,100893.00
2023-02-22T02:52:39.166Z,100887.60
2023-02-22T02:55:18.159Z,100887.40
2023-02-22T02:57:54.320Z,100884.60
2023-02-22T03:00:39.534Z,100883.80
2023-02-22T03:03:44.455Z,100880.80
2023-02-22T03:06:50.967Z,100879.20
2023-02-22T03:09:51.916Z,100881.00
2023-02-22T03:12:42.011Z,100874.60
2023-02-22T03:15:36.665Z,100869.80
2023-02-22T03:18:23.251Z,100870.20
2023-02-22T03:21:14.537Z,100870.20
2023-02-22T03:24:00.898Z,100866.80
2023-02-22T03:26:45.839Z,100866.00
2023-02-22T03:29:27.645Z,100862.00
2023-02-22T03:32:07.401Z,100865.80
2023-02-22T03:34:51.065Z,100862.00
2023-02-22T03:37:36.121Z,100861.40
2023-02-22T03:40:26.020Z,100866.20
2023-02-22T03:43:12.451Z,100867.80
2023-02-22T03:45:53.085Z,100867.00
2023-02-22T03:48:40.170Z,100866.80
2023-02-22T03:51:19.414Z,100866.00
2023-02-22T03:53:59.352Z,100865.60
2023-02-22T03:56:47.455Z,100870.20
2023-02-22T03:59:28.365Z,100865.60
2023-02-22T04:02:05.037Z,100866.60
2023-02-22T04:04:41.843Z,100871.80
2023-02-22T04:07:18.443Z,100872.00
2023-02-22T04:09:55.567Z,100873.00
2023-02-22T04:12:31.755Z,100873.00
2023-02-22T04:15:16.925Z,100873.40
2023-02-22T04:17:54.643Z,100875.20
2023-02-22T04:20:31.982Z,100876.60
2023-02-22T04:23:13.551Z,100876.80
2023-02-22T04:25:50.630Z,100878.20
2023-02-22T04:28:26.853Z,100878.00
2023-02-22T04:31:14.350Z,100879.20
2023-02-22T04:33:51.302Z,100874.60
2023-02-22T04:36:31.944Z,100875.40
2023-02-22T04:39:10.236Z,100874.20
2023-02-22T04:41:47.807Z,100877.40
2023-02-22T04:44:24.862Z,100875.00
2023-02-22T04:47:00.628Z,100876.20
2023-02-22T04:49:39.016Z,100878.60
2023-02-22T04:52:16.307Z,100873.00
2023-02-22T04:54:53.792Z,100875.20
2023-02-22T04:57:31.152Z,100875.40
2023-02-22T05:00:07.572Z,100875.00
2023-02-22T05:02:45.362Z,100875.60
2023-02-22T05:05:25.445Z,100879.00
2023-02-22T05:08:02.314Z,100880.80
2023-02-22T05:10:38.642Z,100879.60
2023-02-22T05:13:15.404Z,100875.00
2023-02-22T05:15:51.598Z,100876.00
2023-02-22T05:18:27.903Z,100875.20
2023-02-22T05:21:04.368Z,100876.20
2023-02-22T05:23:41.094Z,100875.00
2023-02-22T05:26:18.506Z,100875.20
2023-02-22T05:28:55.676Z,100871.20
2023-02-22T05:31:33.093Z,100872.80
2023-02-22T05:34:09.683Z,100875.00
2023-02-22T05:36:46.522Z,100875.20
2023-02-22T05:39:23.775Z,100878.60
2023-02-22T05:42:00.543Z,100880.00
2023-02-22T05:44:36.939Z,100881.20
2023-02-22T05:47:13.700Z,100878.80
2023-02-22T05:49:50.341Z,100880.80
2023-02-22T05:52:27.290Z,100880.80
2023-02-22T05:55:04.908Z,100877.80
2023-02-22T05:57:41.212Z,100878.00
2023-02-22T06:00:27.797Z,100879.40
2023-02-22T06:03:06.824Z,100878.40
2023-02-22T06:05:44.455Z,100878.80
2023-02-22T06:08:21.818Z,100885.80
2023-02-22T06:10:59.080Z,100886.60
2023-02-22T06:13:35.693Z,100890.00
2023-02-22T06:16:14.044Z,100886.40
2023-02-22T06:18:50.632Z,100882.40
2023-02-22T06:21:27.779Z,100880.60
2023-02-22T06:24:06.940Z,100888.40
2023-02-22T06:26:44.262Z,100885.00
2023-02-22T06:29:20.852Z,100886.60
2023-02-22T06:31:57.823Z,100889.80
2023-02-22T06:34:34.631Z,100898.00
2023-02-22T06:37:11.546Z,100896.80
2023-02-22T06:39:47.981Z,100901.60
2023-02-22T06:42:25.319Z,100902.80
2023-02-22T06:45:01.557Z,100903.60
2023-02-22T06:47:40.344Z,100904.80
2023-02-22T06:50:35.978Z,100909.40
2023-02-22T06:53:13.282Z,100911.80
2023-02-22T06:55:50.316Z,100908.80
2023-02-22T06:58:27.481Z,100914.80
2023-02-22T07:01:04.230Z,100914.40
2023-02-22T07:03:41.024Z,100916.60
2023-02-22T07:06:17.836Z,100917.80
2023-02-22T07:08:54.637Z,100917.20
2023-02-22T07:11:31.232Z,100920.00
2023-02-22T07:14:07.827Z,100920.00
2023-02-22T07:16:44.513Z,100920.80
2023-02-22T07:19:20.849Z,100921.20
2023-02-22T07:22:00.218Z,100920.20
2023-02-22T07:24:37.908Z,100918.40
2023-02-22T07:27:13.873Z,100922.60
2023-02-22T07:29:51.722Z,100921.80
2023-02-22T07:32:28.522Z,100918.00
2023-02-22T07:35:05.737Z,100914.20
2023-02-22T07:37:42.170Z,100919.00
2023-02-22T07:40:19.851Z,100922.20
2023-02-22T07:43:07.935Z,100917.80
2023-02-22T07:45:44.830Z,100914.20
2023-02-22T07:48:22.442Z,100917.40
2023-02-22T07:50:58.045Z,100917.00
2023-02-22T07:53:36.185Z,100909.00
2023-02-22T07:56:14.458Z,100908.80
2023-02-22T07:58:51.101Z,100908.80
2023-02-22T08:01:27.100Z,100910.00
2023-02-22T08:04:05.538Z,100911.00
2023-02-22T08:06:42.738Z,100908.40
2023-02-22T08:09:19.950Z,100904.00
2023-02-22T08:11:56.730Z,100901.40
2023-02-22T08:14:33.023Z,100902.60
2023-02-22T08:17:09.757Z,100900.80
2023-02-22T08:19:47.007Z,100902.20
2023-02-22T08:22:23.760Z,100904.60
2023-02-22T08:25:01.149Z,100899.80
2023-02-22T08:27:38.211Z,100901.80
2023-02-22T08:30:20.268Z,100901.40
2023-02-22T08:32:58.374Z,100897.40
2023-02-22T08:35:35.076Z,100898.00
2023-02-22T08:38:21.064Z,100895.20
2023-02-22T08:40:58.705Z,100895.40
2023-02-22T08:43:36.425Z,100893.00
2023-02-22T08:46:14.134Z,100892.80
2023-02-22T08:48:58.367Z,100886.00
2023-02-22T08:51:39.246Z,100888.20
2023-02-22T08:54:15.714Z,100887.20
2023-02-22T08:56:53.642Z,100886.40
2023-02-22T08:59:30.070Z,100884.80
2023-02-22T09:02:06.721Z,100889.00
2023-02-22T09:04:43.337Z,100886.20
2023-02-22T09:07:20.272Z,100887.00
2023-02-22T09:09:57.347Z,100883.40
2023-02-22T09:12:34.577Z,100885.60
2023-02-22T09:15:12.923Z,100883.60
2023-02-22T09:17:52.950Z,100880.60
2023-02-22T09:20:31.106Z,100877.60
2023-02-22T09:23:07.937Z,100882.60
2023-02-22T09:25:44.723Z,100877.20
2023-02-22T09:28:22.109Z,100876.00
2023-02-22T09:30:58.347Z,100873.00
2023-02-22T09:33:34.556Z,100870.40
2023-02-22T09:36:14.630Z,100869.20
2023-02-22T09:38:51.761Z,100867.60
2023-02-22T09:41:36.587Z,100866.60
2023-02-22T09:44:28.036Z,100862.60
2023-02-22T09:47:05.148Z,100863.40
2023-02-22T09:49:53.044Z,100861.40
2023-02-22T09:52:44.440Z,100863.60
2023-02-22T09:55:36.721Z,100863.20
2023-02-22T09:58:26.373Z,100864.20
2023-02-22T10:01:16.653Z,100864.80
2023-02-22T10:04:02.821Z,100856.80
2023-02-22T10:06:42.121Z,100856.00
2023-02-22T10:09:19.462Z,100852.40
2023-02-22T10:12:12.026Z,100851.20
2023-02-22T10:15:31.337Z,100848.40
2023-02-22T10:18:48.936Z,100842.20
2023-02-22T10:21:43.958Z,100842.40
2023-02-22T10:24:40.312Z,100836.40
2023-02-22T10:27:27.399Z,100836.80
2023-02-22T10:30:24.578Z,100837.80
2023-02-22T10:33:13.863Z,100835.00
2023-02-22T10:35:53.101Z,100838.00
2023-02-22T10:38:33.101Z,100839.40
2023-02-22T10:41:26.474Z,100835.40
2023-02-22T10:44:03.725Z,100834.20
2023-02-22T10:46:42.372Z,100824.80
2023-02-22T10:49:24.004Z,100824.60
2023-02-22T10:52:07.273Z,100822.80
2023-02-22T10:54:50.872Z,100819.00
2023-02-22T10:57:31.677Z,100817.60
2023-02-22T11:00:26.502Z,100810.20
2023-02-22T11:03:06.242Z,100807.80
2023-02-22T11:05:45.236Z,100806.80
2023-02-22T11:08:34.573Z,100803.20
2023-02-22T11:11:27.391Z,100799.80
2023-02-22T11:14:06.933Z,100798.20
2023-02-22T11:16:50.711Z,100791.80
2023-02-22T11:19:32.480Z,100791.00
2023-02-22T11:22:24.583Z,100782.40
2023-02-22T11:25:05.158Z,100786.40
2023-02-22T11:27:47.346Z,100778.60
2023-02-22T11:30:36.543Z,100771.40
2023-02-22T11:33:26.792Z,100770.60
2023-02-22T11:36:08.917Z,100767.20
2023-02-22T11:39:00.348Z,100763.40
2023-02-22T11:41:38.560Z,100763.80
2023-02-22T11:44:30.424Z,100762.60
2023-02-22T11:47:13.820Z,100754.20
2023-02-22T11:49:53.673Z,100753.00
2023-02-22T11:52:42.593Z,100753.00
2023-02-22T11:55:42.678Z,100751.60
2023-02-22T11:58:45.181Z,100751.40
2023-02-22T12:01:32.508Z,100743.20
2023-02-22T12:04:48.491Z,100745.60
2023-02-22T12:07:46.861Z,100740.20
2023-02-22T12:10:43.883Z,100736.00
2023-02-22T12:13:41.838Z,100736.00
2023-02-22T12:16:32.011Z,100732.40
2023-02-22T12:19:28.760Z,100727.60
2023-02-22T12:22:15.183Z,100723.80
2023-02-22T12:25:09.593Z,100726.00
2023-02-22T12:27:56.132Z,100728.80
2023-02-22T12:30:39.433Z,100728.20
2023-02-22T12:33:22.912Z,100721.80
2023-02-22T12:36:04.461Z,100724.20
2023-02-22T12:38:46.637Z,100722.20
2023-02-22T12:41:34.315Z,100721.00
2023-02-22T12:44:20.531Z,100714.20
2023-02-22T12:47:01.722Z,100715.60
2023-02-22T12:49:43.031Z,100713.00
2023-02-22T12:52:31.176Z,100711.60
2023-02-22T12:55:15.988Z,100704.40
2023-02-22T12:58:01.350Z,100708.20
2023-02-22T13:00:47.737Z,100706.60
2023-02-22T13:03:47.089Z,100711.20
2023-02-22T13:06:52.800Z,100703.40
2023-02-22T13:09:53.445Z,100706.00
2023-02-22T13:12:40.888Z,100707.80
2023-02-22T13:15:28.427Z,100702.80
2023-02-22T13:18:19.278Z,100703.60
2023-02-22T13:21:06.986Z,100703.60
2023-02-22T13:23:56.361Z,100703.60
2023-02-22T13:26:41.681Z,100702.40
2023-02-22T13:29:22.881Z,100701.20
2023-02-22T13:32:39.490Z,100696.80
2023-02-22T13:35:58.336Z,100695.40
2023-02-22T13:39:07.297Z,100689.40
2023-02-22T13:42:23.010Z,100692.20
2023-02-22T13:46:01.972Z,100683.80
2023-02-22T13:49:13.573Z,100691.40
2023-02-22T13:51:56.689Z,100690.20
2023-02-22T13:54:49.039Z,100690.40
2023-02-22T13:57:33.854Z,100686.00
2023-02-22T14:00:51.020Z,100684.00
2023-02-22T14:03:42.916Z,100682.00
2023-02-22T14:06:45.944Z,100682.00
2023-02-22T14:09:48.729Z,100679.40
2023-02-22T14:13:07.393Z,100678.20
2023-02-22T14:16:20.080Z,100681.00
2023-02-22T14:19:06.855Z,100676.00
2023-02-22T14:22:02.305Z,100673.00
2023-02-22T14:24:52.442Z,100673.40
2023-02-22T14:27:41.384Z,100675.00
2023-02-22T14:30:35.426Z,100673.40
2023-02-22T14:34:01.649Z,100666.20
2023-02-22T14:36:56.317Z,100665.00
2023-02-22T14:39:39.926Z,100663.40
2023-02-22T14:42:26.412Z,100663.40
2023-02-22T14:45:21.668Z,100667.80
2023-02-22T14:48:12.123Z,100664.80
2023-02-22T14:51:05.872Z,100666.40
2023-02-22T14:53:54.587Z,100666.40
2023-02-22T14:56:41.146Z,100667.20
2023-02-22T14:59:27.352Z,100667.60
2023-02-22T15:02:18.374Z,100667.00
2023-02-22T15:05:01.382Z,100666.00
2023-02-22T15:07:39.084Z,100667.40
2023-02-22T15:10:34.067Z,100661.00
2023-02-22T15:13:21.308Z,100660.40
2023-02-22T15:16:05.111Z,100659.00
2023-02-22T15:18:47.259Z,100656.80
2023-02-22T15:21:27.360Z,100653.60
2023-02-22T15:24:08.061Z,100652.60
2023-02-22T15:27:00.131Z,100655.60
2023-02-22T15:29:44.502Z,100653.20
2023-02-22T15:32:37.218Z,100652.60
2023-02-22T15:35:31.671Z,100655.20
2023-02-22T15:38:22.809Z,100654.20
2023-02-22T15:41:14.193Z,100652.20
2023-02-22T15:44:23.314Z,100649.20
2023-02-22T15:47:00.537Z,100652.20
2023-02-22T15:49:39.014Z,100649.80
2023-02-22T15:52:26.432Z,100646.00
2023-02-22T15:55:03.233Z,100646.00
2023-02-22T15:57:43.141Z,100643.40
2023-02-22T16:00:36.669Z,100639.20
2023-02-22T16:03:18.790Z,100635.60
2023-02-22T16:05:59.195Z,100638.60
2023-02-22T16:08:55.148Z,100633.80
2023-02-22T16:11:39.994Z,100630.80
2023-02-22T16:14:43.404Z,100630.20
2023-02-22T16:17:35.670Z,100628.20
2023-02-22T16:20:41.544Z,100632.00
2023-02-22T16:23:35.926Z,100628.20
2023-02-22T16:26:32.862Z,100637.20
2023-02-22T16:29:27.397Z,100637.00
2023-02-22T16:32:04.115Z,100638.00
2023-02-22T16:34:40.391Z,100638.80
2023-02-22T16:37:31.687Z,100631.40
2023-02-22T16:40:14.400Z,100635.80
2023-02-22T16:42:52.561Z,100635.20
2023-02-22T16:45:29.821Z,100637.20
2023-02-22T16:48:14.179Z,100635.00
2023-02-22T16:50:52.730Z,100634.80
2023-02-22T16:53:34.548Z,100635.20
2023-02-22T16:56:17.881Z,100634.40
2023-02-22T16:58:56.832Z,100629.60
2023-02-22T17:01:35.745Z,100632.40
2023-02-22T17:04:20.819Z,100633.20
2023-02-22T17:06:59.174Z,100643.80
2023-02-22T17:09:35.559Z,100649.60
2023-02-22T17:12:15.167Z,100648.40
2023-02-22T17:14:52.764Z,100651.20
2023-02-22T17:17:29.602Z,100653.80
2023-02-22T17:20:11.652Z,100656.80
2023-02-22T17:22:48.356Z,100659.40
2023-02-22T17:25:34.021Z,100660.00
2023-02-22T17:28:12.000Z,100664.80
2023-02-22T17:30:50.158Z,100665.20
2023-02-22T17:33:31.182Z,100666.20
2023-02-22T17:36:13.552Z,100673.60
2023-02-22T17:38:50.634Z,100671.60
2023-02-22T17:41:27.570Z,100674.20
2023-02-22T17:44:04.703Z,100674.60
2023-02-22T17:46:43.171Z,100675.60
2023-02-22T17:49:19.966Z,100674.20
2023-02-22T17:51:58.215Z,100675.80
2023-02-22T17:54:37.054Z,100680.00
2023-02-22T17:57:15.111Z,100686.40
2023-02-22T17:59:52.720Z,100691.20
2023-02-22T18:02:29.769Z,100692.40
2023-02-22T18:05:08.198Z,100689.20
2023-02-22T18:07:45.666Z,100686.00
2023-02-22T18:10:22.540Z,100685.60
2023-02-22T18:13:02.105Z,100685.40
2023-02-22T18:15:39.125Z,100684.20
2023-02-22T18:18:16.520Z,100683.00
2023-02-22T18:21:00.155Z,100679.40
2023-02-22T18:23:38.142Z,100681.40
2023-02-22T18:26:20.842Z,100676.80
2023-02-22T18:28:57.740Z,100677.60
2023-02-22T18:31:34.560Z,100677.80
2023-02-22T18:34:13.117Z,100683.60
2023-02-22T18:36:50.745Z,100675.20
2023-02-22T18:39:31.675Z,100671.40
2023-02-22T18:42:08.278Z,100670.80
2023-02-22T18:44:46.480Z,100666.80
2023-02-22T18:47:23.827Z,100665.60
2023-02-22T18:50:01.499Z,100668.80
2023-02-22T18:52:46.721Z,100663.00
2023-02-22T18:55:24.486Z,100665.40
2023-02-22T18:58:02.781Z,100660.00
2023-02-22T19:00:41.428Z,100661.20
2023-02-22T19:03:19.072Z,100659.40
2023-02-22T19:05:57.316Z,100658.20
2023-02-22T19:08:35.051Z,100657.00
2023-02-22T19:11:18.096Z,100658.00
2023-02-22T19:13:57.383Z,100662.60
2023-02-22T19:16:35.261Z,100670.40
2023-02-22T19:19:12.012Z,100669.40
2023-02-22T19:21:49.718Z,100670.40
2023-02-22T19:24:26.547Z,100669.00
2023-02-22T19:27:04.009Z,100671.80
2023-02-22T19:29:41.480Z,100672.80
2023-02-22T19:32:19.358Z,100676.80
2023-02-22T19:35:02.419Z,100671.20
2023-02-22T19:37:40.957Z,100673.60
2023-02-22T19:40:18.636Z,100673.80
2023-02-22T19:42:57.578Z,100676.00
2023-02-22T19:45:42.026Z,100679.60
2023-02-22T19:48:19.179Z,100676.80
2023-02-22T19:51:00.334Z,100678.00
2023-02-22T19:53:39.487Z,100678.40
2023-02-22T19:56:20.119Z,100682.80
2023-02-22T19:58:57.343Z,100683.00
2023-02-22T20:01:36.836Z,100685.40
2023-02-22T20:04:18.854Z,100686.40
2023-02-22T20:06:56.220Z,100685.80
2023-02-22T20:09:37.383Z,100684.40
2023-02-22T20:12:15.830Z,100688.20
2023-02-22T20:14:53.420Z,100688.40
2023-02-22T20:17:31.760Z,100687.80
2023-02-22T20:20:13.215Z,100687.60
2023-02-22T20:22:50.492Z,100687.00
2023-02-22T20:25:27.416Z,100689.40
2023-02-22T20:28:07.519Z,100686.60
2023-02-22T20:30:45.110Z,100691.20
2023-02-22T20:33:22.881Z,100688.00
2023-02-22T20:35:59.490Z,100690.80
2023-02-22T20:38:36.922Z,100688.00
2023-02-22T20:41:22.542Z,100689.80
2023-02-22T20:44:00.530Z,100692.80
2023-02-22T20:46:37.973Z,100692.60
2023-02-22T20:49:17.472Z,100689.60
2023-02-22T20:51:54.448Z,100690.20
2023-02-22T20:54:31.740Z,100686.20
2023-02-22T20:57:09.050Z,100685.40
2023-02-22T20:59:46.495Z,100685.60
2023-02-22T21:02:23.599Z,100684.00
2023-02-22T21:05:00.964Z,100684.40
2023-02-22T21:07:38.157Z,100682.60
2023-02-22T21:10:16.700Z,100684.40
2023-02-22T21:12:54.034Z,100683.40
2023-02-22T21:15:32.581Z,100678.40
2023-02-22T21:18:10.183Z,100679.40
2023-02-22T21:20:48.438Z,100674.80
2023-02-22T21:23:24.976Z,100672.40
2023-02-22T21:26:01.699Z,100674.20
2023-02-22T21:28:50.997Z,100669.60
2023-02-22T21:31:29.363Z,100668.80
2023-02-22T21:34:07.127Z,100667.60
2023-02-22T21:36:44.341Z,100665.00
2023-02-22T21:39:22.922Z,100662.60
2023-02-22T21:42:01.530Z,100663.00
2023-02-22T21:44:38.087Z,100660.80
2023-02-22T21:47:15.087Z,100661.80
2023-02-22T21:49:51.960Z,100656.60
2023-02-22T21:52:29.172Z,100656.00
2023-02-22T21:55:07.798Z,100649.40
2023-02-22T21:57:45.269Z,100651.00
2023-02-22T22:00:29.647Z,100648.60
2023-02-22T22:03:12.723Z,100646.80
2023-02-22T22:05:49.328Z,100649.80
2023-02-22T22:08:28.072Z,100644.20
2023-02-22T22:11:05.824Z,100646.20
2023-02-22T22:13:45.362Z,100649.20
2023-02-22T22:16:23.339Z,100649.00
2023-02-22T22:18:59.681Z,100650.60
2023-02-22T22:21:38.215Z,100643.80
2023-02-22T22:24:17.898Z,100645.40
2023-02-22T22:26:56.837Z,100648.60
2023-02-22T22:29:34.775Z,100650.80
2023-02-22T22:32:12.469Z,100647.00
2023-02-22T22:34:50.089Z,100648.80
2023-02-22T22:37:28.170Z,100647.20
2023-02-22T22:40:06.310Z,100644.00
2023-02-22T22:42:43.020Z,100642.60
2023-02-22T22:45:21.875Z,100643.20
2023-02-22T22:47:58.200Z,100642.80
2023-02-22T22:50:36.487Z,100641.80
2023-02-22T22:53:13.343Z,100635.60
2023-02-22T22:55:53.315Z,100637.60
2023-02-22T22:58:29.679Z,100635.20
2023-02-22T23:01:07.945Z,100638.80
2023-02-22T23:03:48.361Z,100635.80
2023-02-22T23:06:27.416Z,100632.60
2023-02-22T23:09:20.622Z,100636.00
2023-02-22T23:11:58.769Z,100637.20
2023-02-22T23:14:37.537Z,100632.00
2023-02-22T23:17:27.306Z,100629.00
2023-02-22T23:20:11.235Z,100631.60
2023-02-22T23:22:47.979Z,100628.60
2023-02-22T23:25:26.729Z,100630.60
2023-02-22T23:28:03.128Z,100629.40
2023-02-22T23:30:43.079Z,100631.00
2023-02-22T23:33:19.751Z,100628.80
2023-02-22T23:35:56.989Z,100626.20
2023-02-22T23:38:35.451Z,100626.40
2023-02-22T23:41:14.533Z,100624.20
2023-02-22T23:43:53.231Z,100620.60
2023-02-22T23:46:33.050Z,100621.80
2023-02-22T23:49:12.301Z,100621.60
2023-02-22T23:51:49.701Z,100616.60
2023-02-22T23:54:38.174Z,100614.00
2023-02-22T23:57:17.762Z,100608.00
2023-02-22T23:59:54.588Z,100612.80
